sensor_id;sensor_type;location;lat;lon;timestamp;P1;durP1;ratioP1;P2;durP2;ratioP2
13866;SDS011;7003;46.982;15.248;2022-12-31T00:01:29;3.97;;;3.60;;
13866;SDS011;7003;46.982;15.248;2022-12-31T00:03:56;9.23;;;5.43;;
13866;SDS011;7003;46.982;15.248;2022-12-31T00:06:24;4.67;;;3.53;;
13866;SDS011;7003;46.982;15.248;2022-12-31T00:08:55;7.63;;;4.87;;
13866;SDS011;7003;46.982;15.248;2022-12-31T00:11:24;4.27;;;3.87;;
13866;SDS011;7003;46.982;15.248;2022-12-31T00:13:52;6.23;;;4.57;;
13866;SDS011;7003;46.982;15.248;2022-12-31T00:16:33;5.30;;;3.87;;
13866;SDS011;7003;46.982;15.248;2022-12-31T00:19:02;4.87;;;3.43;;
13866;SDS011;7003;46.982;15.248;2022-12-31T00:21:33;5.93;;;3.43;;
13866;SDS011;7003;46.982;15.248;2022-12-31T00:24:03;5.77;;;3.73;;
13866;SDS011;7003;46.982;15.248;2022-12-31T00:26:33;4.80;;;4.07;;
13866;SDS011;7003;46.982;15.248;2022-12-31T00:29:02;3.73;;;3.37;;
13866;SDS011;7003;46.982;15.248;2022-12-31T00:31:31;5.30;;;3.23;;
13866;SDS011;7003;46.982;15.248;2022-12-31T00:34:02;4.73;;;3.43;;
13866;SDS011;7003;46.982;15.248;2022-12-31T00:36:30;3.90;;;3.33;;
13866;SDS011;7003;46.982;15.248;2022-12-31T00:39:06;4.50;;;3.57;;
13866;SDS011;7003;46.982;15.248;2022-12-31T00:41:34;5.50;;;3.77;;
13866;SDS011;7003;46.982;15.248;2022-12-31T00:44:04;5.93;;;3.57;;
13866;SDS011;7003;46.982;15.248;2022-12-31T00:46:33;5.20;;;3.57;;
13866;SDS011;7003;46.982;15.248;2022-12-31T00:49:03;8.40;;;3.63;;
13866;SDS011;7003;46.982;15.248;2022-12-31T00:51:31;4.30;;;3.90;;
13866;SDS011;7003;46.982;15.248;2022-12-31T00:54:02;7.57;;;3.90;;
13866;SDS011;7003;46.982;15.248;2022-12-31T00:56:31;4.97;;;4.50;;
13866;SDS011;7003;46.982;15.248;2022-12-31T00:59:01;5.77;;;4.23;;
13866;SDS011;7003;46.982;15.248;2022-12-31T01:01:29;7.00;;;5.50;;
13866;SDS011;7003;46.982;15.248;2022-12-31T01:04:00;9.17;;;3.77;;
13866;SDS011;7003;46.982;15.248;2022-12-31T01:06:30;5.30;;;3.83;;
13866;SDS011;7003;46.982;15.248;2022-12-31T01:08:59;5.73;;;4.53;;
13866;SDS011;7003;46.982;15.248;2022-12-31T01:11:27;6.50;;;4.50;;
13866;SDS011;7003;46.982;15.248;2022-12-31T01:13:58;8.50;;;5.10;;
13866;SDS011;7003;46.982;15.248;2022-12-31T01:16:28;5.23;;;3.83;;
13866;SDS011;7003;46.982;15.248;2022-12-31T01:18:59;4.83;;;3.33;;
13866;SDS011;7003;46.982;15.248;2022-12-31T01:21:31;4.53;;;3.73;;
13866;SDS011;7003;46.982;15.248;2022-12-31T01:24:01;2.90;;;2.63;;
13866;SDS011;7003;46.982;15.248;2022-12-31T01:26:29;4.47;;;2.73;;
13866;SDS011;7003;46.982;15.248;2022-12-31T01:29:00;5.67;;;3.93;;
13866;SDS011;7003;46.982;15.248;2022-12-31T01:31:27;3.97;;;3.07;;
13866;SDS011;7003;46.982;15.248;2022-12-31T01:33:58;5.90;;;4.10;;
13866;SDS011;7003;46.982;15.248;2022-12-31T01:36:29;4.50;;;3.50;;
13866;SDS011;7003;46.982;15.248;2022-12-31T01:39:00;5.97;;;4.30;;
13866;SDS011;7003;46.982;15.248;2022-12-31T01:41:32;6.17;;;3.60;;
13866;SDS011;7003;46.982;15.248;2022-12-31T01:44:43;4.93;;;3.93;;
13866;SDS011;7003;46.982;15.248;2022-12-31T01:47:11;6.03;;;3.57;;
13866;SDS011;7003;46.982;15.248;2022-12-31T01:49:41;5.93;;;5.23;;
13866;SDS011;7003;46.982;15.248;2022-12-31T01:52:13;5.93;;;4.20;;
13866;SDS011;7003;46.982;15.248;2022-12-31T01:54:45;7.30;;;4.87;;
13866;SDS011;7003;46.982;15.248;2022-12-31T01:57:17;3.33;;;3.07;;
13866;SDS011;7003;46.982;15.248;2022-12-31T01:59:47;7.47;;;4.60;;
13866;SDS011;7003;46.982;15.248;2022-12-31T02:02:15;3.23;;;3.03;;
13866;SDS011;7003;46.982;15.248;2022-12-31T02:04:42;3.83;;;3.47;;
13866;SDS011;7003;46.982;15.248;2022-12-31T02:07:11;4.40;;;3.80;;
13866;SDS011;7003;46.982;15.248;2022-12-31T02:09:41;3.73;;;3.13;;
13866;SDS011;7003;46.982;15.248;2022-12-31T02:12:11;7.43;;;4.63;;
13866;SDS011;7003;46.982;15.248;2022-12-31T02:14:42;11.83;;;3.80;;
13866;SDS011;7003;46.982;15.248;2022-12-31T02:17:15;3.00;;;2.70;;
13866;SDS011;7003;46.982;15.248;2022-12-31T02:20:04;5.23;;;3.03;;
13866;SDS011;7003;46.982;15.248;2022-12-31T02:22:52;5.03;;;3.63;;
13866;SDS011;7003;46.982;15.248;2022-12-31T02:25:57;6.57;;;3.57;;
13866;SDS011;7003;46.982;15.248;2022-12-31T02:28:45;3.53;;;2.87;;
13866;SDS011;7003;46.982;15.248;2022-12-31T02:31:33;7.87;;;4.47;;
13866;SDS011;7003;46.982;15.248;2022-12-31T02:34:07;4.23;;;3.43;;
13866;SDS011;7003;46.982;15.248;2022-12-31T02:36:40;7.17;;;3.60;;
13866;SDS011;7003;46.982;15.248;2022-12-31T02:39:10;4.47;;;2.73;;
13866;SDS011;7003;46.982;15.248;2022-12-31T02:41:42;3.53;;;2.63;;
13866;SDS011;7003;46.982;15.248;2022-12-31T02:44:19;6.13;;;4.67;;
13866;SDS011;7003;46.982;15.248;2022-12-31T02:46:51;5.97;;;4.43;;
13866;SDS011;7003;46.982;15.248;2022-12-31T02:49:27;4.27;;;3.87;;
13866;SDS011;7003;46.982;15.248;2022-12-31T02:52:05;6.10;;;4.70;;
13866;SDS011;7003;46.982;15.248;2022-12-31T02:54:42;3.67;;;2.83;;
13866;SDS011;7003;46.982;15.248;2022-12-31T02:57:18;2.87;;;2.63;;
13866;SDS011;7003;46.982;15.248;2022-12-31T02:59:53;3.20;;;2.90;;
13866;SDS011;7003;46.982;15.248;2022-12-31T03:02:43;4.53;;;3.97;;
13866;SDS011;7003;46.982;15.248;2022-12-31T03:05:16;3.47;;;2.30;;
13866;SDS011;7003;46.982;15.248;2022-12-31T03:07:49;5.23;;;3.90;;
13866;SDS011;7003;46.982;15.248;2022-12-31T03:10:18;4.30;;;3.00;;
13866;SDS011;7003;46.982;15.248;2022-12-31T03:12:49;2.73;;;2.53;;
13866;SDS011;7003;46.982;15.248;2022-12-31T03:15:19;3.63;;;2.70;;
13866;SDS011;7003;46.982;15.248;2022-12-31T03:17:49;3.67;;;3.37;;
13866;SDS011;7003;46.982;15.248;2022-12-31T03:20:20;4.13;;;3.83;;
13866;SDS011;7003;46.982;15.248;2022-12-31T03:23:10;5.33;;;3.93;;
13866;SDS011;7003;46.982;15.248;2022-12-31T03:25:39;4.43;;;2.97;;
13866;SDS011;7003;46.982;15.248;2022-12-31T03:28:11;3.63;;;3.33;;
13866;SDS011;7003;46.982;15.248;2022-12-31T03:30:44;4.80;;;3.67;;
13866;SDS011;7003;46.982;15.248;2022-12-31T03:33:16;4.20;;;3.10;;
13866;SDS011;7003;46.982;15.248;2022-12-31T03:35:44;4.30;;;3.10;;
13866;SDS011;7003;46.982;15.248;2022-12-31T03:38:13;3.73;;;3.07;;
13866;SDS011;7003;46.982;15.248;2022-12-31T03:40:41;4.20;;;3.13;;
13866;SDS011;7003;46.982;15.248;2022-12-31T03:43:09;3.63;;;2.30;;
13866;SDS011;7003;46.982;15.248;2022-12-31T03:45:39;6.40;;;2.50;;
13866;SDS011;7003;46.982;15.248;2022-12-31T03:48:09;5.07;;;3.87;;
13866;SDS011;7003;46.982;15.248;2022-12-31T03:50:40;3.27;;;2.50;;
13866;SDS011;7003;46.982;15.248;2022-12-31T03:53:07;3.50;;;2.23;;
13866;SDS011;7003;46.982;15.248;2022-12-31T03:55:36;3.73;;;3.37;;
13866;SDS011;7003;46.982;15.248;2022-12-31T03:58:05;5.00;;;3.37;;
13866;SDS011;7003;46.982;15.248;2022-12-31T04:00:33;2.87;;;2.60;;
13866;SDS011;7003;46.982;15.248;2022-12-31T04:03:00;6.47;;;4.43;;
13866;SDS011;7003;46.982;15.248;2022-12-31T04:05:28;2.77;;;2.57;;
13866;SDS011;7003;46.982;15.248;2022-12-31T04:07:57;3.07;;;2.70;;
13866;SDS011;7003;46.982;15.248;2022-12-31T04:10:26;4.10;;;2.97;;
13866;SDS011;7003;46.982;15.248;2022-12-31T04:12:53;5.30;;;3.57;;
13866;SDS011;7003;46.982;15.248;2022-12-31T04:15:20;3.67;;;2.30;;
13866;SDS011;7003;46.982;15.248;2022-12-31T04:17:50;3.90;;;2.60;;
13866;SDS011;7003;46.982;15.248;2022-12-31T04:20:18;2.30;;;1.97;;
13866;SDS011;7003;46.982;15.248;2022-12-31T04:22:48;2.47;;;2.00;;
13866;SDS011;7003;46.982;15.248;2022-12-31T04:25:21;3.07;;;2.50;;
13866;SDS011;7003;46.982;15.248;2022-12-31T04:27:49;3.37;;;2.07;;
13866;SDS011;7003;46.982;15.248;2022-12-31T04:30:16;4.53;;;3.03;;
13866;SDS011;7003;46.982;15.248;2022-12-31T04:32:45;3.93;;;3.63;;
13866;SDS011;7003;46.982;15.248;2022-12-31T04:35:12;3.50;;;3.00;;
13866;SDS011;7003;46.982;15.248;2022-12-31T04:37:40;3.33;;;2.73;;
13866;SDS011;7003;46.982;15.248;2022-12-31T04:40:07;4.00;;;2.93;;
13866;SDS011;7003;46.982;15.248;2022-12-31T04:42:39;5.80;;;3.43;;
13866;SDS011;7003;46.982;15.248;2022-12-31T04:45:06;4.50;;;4.03;;
13866;SDS011;7003;46.982;15.248;2022-12-31T04:47:34;5.93;;;3.17;;
13866;SDS011;7003;46.982;15.248;2022-12-31T04:50:03;4.10;;;2.70;;
13866;SDS011;7003;46.982;15.248;2022-12-31T04:52:33;6.10;;;3.70;;
13866;SDS011;7003;46.982;15.248;2022-12-31T04:55:03;4.73;;;3.80;;
13866;SDS011;7003;46.982;15.248;2022-12-31T04:57:30;3.10;;;2.87;;
13866;SDS011;7003;46.982;15.248;2022-12-31T04:59:59;4.43;;;2.57;;
13866;SDS011;7003;46.982;15.248;2022-12-31T05:02:28;2.77;;;2.50;;
13866;SDS011;7003;46.982;15.248;2022-12-31T05:04:55;4.57;;;3.07;;
13866;SDS011;7003;46.982;15.248;2022-12-31T05:07:22;6.23;;;3.67;;
13866;SDS011;7003;46.982;15.248;2022-12-31T05:09:49;3.77;;;3.43;;
13866;SDS011;7003;46.982;15.248;2022-12-31T05:12:16;4.10;;;3.70;;
13866;SDS011;7003;46.982;15.248;2022-12-31T05:14:46;9.87;;;3.13;;
13866;SDS011;7003;46.982;15.248;2022-12-31T05:17:14;3.17;;;2.57;;
13866;SDS011;7003;46.982;15.248;2022-12-31T05:19:41;5.00;;;2.63;;
13866;SDS011;7003;46.982;15.248;2022-12-31T05:22:12;5.87;;;3.97;;
13866;SDS011;7003;46.982;15.248;2022-12-31T05:24:54;3.97;;;3.00;;
13866;SDS011;7003;46.982;15.248;2022-12-31T05:27:25;4.00;;;3.00;;
13866;SDS011;7003;46.982;15.248;2022-12-31T05:29:53;5.20;;;3.63;;
13866;SDS011;7003;46.982;15.248;2022-12-31T05:32:21;4.83;;;3.37;;
13866;SDS011;7003;46.982;15.248;2022-12-31T05:34:48;3.53;;;3.23;;
13866;SDS011;7003;46.982;15.248;2022-12-31T05:37:18;3.67;;;2.97;;
13866;SDS011;7003;46.982;15.248;2022-12-31T05:39:45;4.13;;;3.77;;
13866;SDS011;7003;46.982;15.248;2022-12-31T05:42:12;3.50;;;3.00;;
13866;SDS011;7003;46.982;15.248;2022-12-31T05:44:39;3.27;;;2.97;;
13866;SDS011;7003;46.982;15.248;2022-12-31T05:47:09;3.00;;;2.40;;
13866;SDS011;7003;46.982;15.248;2022-12-31T05:49:40;7.00;;;3.13;;
13866;SDS011;7003;46.982;15.248;2022-12-31T05:52:07;3.47;;;2.73;;
13866;SDS011;7003;46.982;15.248;2022-12-31T05:54:35;2.63;;;2.43;;
13866;SDS011;7003;46.982;15.248;2022-12-31T05:57:02;2.83;;;2.47;;
13866;SDS011;7003;46.982;15.248;2022-12-31T05:59:33;13.03;;;2.70;;
13866;SDS011;7003;46.982;15.248;2022-12-31T06:02:01;6.00;;;2.73;;
13866;SDS011;7003;46.982;15.248;2022-12-31T06:04:29;2.17;;;1.80;;
13866;SDS011;7003;46.982;15.248;2022-12-31T06:06:57;2.23;;;2.03;;
13866;SDS011;7003;46.982;15.248;2022-12-31T06:09:27;4.70;;;3.23;;
13866;SDS011;7003;46.982;15.248;2022-12-31T06:11:56;3.73;;;2.50;;
13866;SDS011;7003;46.982;15.248;2022-12-31T06:14:23;2.73;;;2.07;;
13866;SDS011;7003;46.982;15.248;2022-12-31T06:16:50;2.13;;;1.93;;
13866;SDS011;7003;46.982;15.248;2022-12-31T06:19:18;2.33;;;2.10;;
13866;SDS011;7003;46.982;15.248;2022-12-31T06:21:45;3.03;;;2.73;;
13866;SDS011;7003;46.982;15.248;2022-12-31T06:24:16;3.70;;;2.77;;
13866;SDS011;7003;46.982;15.248;2022-12-31T06:26:44;4.60;;;3.97;;
13866;SDS011;7003;46.982;15.248;2022-12-31T06:29:11;3.10;;;2.63;;
13866;SDS011;7003;46.982;15.248;2022-12-31T06:31:40;4.43;;;3.97;;
13866;SDS011;7003;46.982;15.248;2022-12-31T06:34:08;2.00;;;1.60;;
13866;SDS011;7003;46.982;15.248;2022-12-31T06:36:37;4.13;;;2.57;;
13866;SDS011;7003;46.982;15.248;2022-12-31T06:39:06;2.97;;;2.17;;
13866;SDS011;7003;46.982;15.248;2022-12-31T06:41:36;5.07;;;2.97;;
13866;SDS011;7003;46.982;15.248;2022-12-31T06:44:03;4.77;;;3.30;;
13866;SDS011;7003;46.982;15.248;2022-12-31T06:46:31;4.43;;;2.90;;
13866;SDS011;7003;46.982;15.248;2022-12-31T06:48:59;3.07;;;2.40;;
13866;SDS011;7003;46.982;15.248;2022-12-31T06:51:27;2.67;;;2.47;;
13866;SDS011;7003;46.982;15.248;2022-12-31T06:53:54;2.13;;;1.67;;
13866;SDS011;7003;46.982;15.248;2022-12-31T06:56:25;3.13;;;2.30;;
13866;SDS011;7003;46.982;15.248;2022-12-31T06:58:56;3.20;;;1.80;;
13866;SDS011;7003;46.982;15.248;2022-12-31T07:01:42;2.67;;;2.23;;
13866;SDS011;7003;46.982;15.248;2022-12-31T07:04:26;2.07;;;1.87;;
13866;SDS011;7003;46.982;15.248;2022-12-31T07:07:13;2.53;;;2.33;;
13866;SDS011;7003;46.982;15.248;2022-12-31T07:09:49;3.73;;;2.33;;
13866;SDS011;7003;46.982;15.248;2022-12-31T07:12:30;8.80;;;2.77;;
13866;SDS011;7003;46.982;15.248;2022-12-31T07:15:13;4.03;;;3.63;;
13866;SDS011;7003;46.982;15.248;2022-12-31T07:17:50;2.87;;;2.50;;
13866;SDS011;7003;46.982;15.248;2022-12-31T07:20:30;3.10;;;2.80;;
13866;SDS011;7003;46.982;15.248;2022-12-31T07:23:01;6.73;;;4.43;;
13866;SDS011;7003;46.982;15.248;2022-12-31T07:25:31;22.77;;;13.87;;
13866;SDS011;7003;46.982;15.248;2022-12-31T07:28:04;24.60;;;14.80;;
13866;SDS011;7003;46.982;15.248;2022-12-31T07:30:44;14.50;;;10.60;;
13866;SDS011;7003;46.982;15.248;2022-12-31T07:33:27;9.83;;;8.80;;
13866;SDS011;7003;46.982;15.248;2022-12-31T07:36:05;7.83;;;6.07;;
13866;SDS011;7003;46.982;15.248;2022-12-31T07:38:47;13.90;;;9.40;;
13866;SDS011;7003;46.982;15.248;2022-12-31T07:41:22;14.03;;;8.73;;
13866;SDS011;7003;46.982;15.248;2022-12-31T07:44:09;26.17;;;17.90;;
13866;SDS011;7003;46.982;15.248;2022-12-31T07:46:53;18.53;;;13.60;;
13866;SDS011;7003;46.982;15.248;2022-12-31T07:49:24;10.03;;;6.60;;
13866;SDS011;7003;46.982;15.248;2022-12-31T07:51:57;27.40;;;15.40;;
13866;SDS011;7003;46.982;15.248;2022-12-31T07:54:27;81.10;;;40.77;;
13866;SDS011;7003;46.982;15.248;2022-12-31T07:56:56;57.77;;;34.80;;
13866;SDS011;7003;46.982;15.248;2022-12-31T07:59:29;38.43;;;22.50;;
13866;SDS011;7003;46.982;15.248;2022-12-31T08:02:11;29.70;;;16.67;;
13866;SDS011;7003;46.982;15.248;2022-12-31T08:04:52;22.37;;;11.03;;
13866;SDS011;7003;46.982;15.248;2022-12-31T08:07:30;17.87;;;10.13;;
13866;SDS011;7003;46.982;15.248;2022-12-31T08:10:06;18.53;;;10.47;;
13866;SDS011;7003;46.982;15.248;2022-12-31T08:12:42;12.10;;;6.73;;
13866;SDS011;7003;46.982;15.248;2022-12-31T08:15:12;6.93;;;5.23;;
13866;SDS011;7003;46.982;15.248;2022-12-31T08:17:44;9.60;;;5.50;;
13866;SDS011;7003;46.982;15.248;2022-12-31T08:20:13;6.47;;;4.13;;
13866;SDS011;7003;46.982;15.248;2022-12-31T08:22:46;3.73;;;3.33;;
13866;SDS011;7003;46.982;15.248;2022-12-31T08:25:32;5.17;;;3.50;;
13866;SDS011;7003;46.982;15.248;2022-12-31T08:28:10;12.40;;;7.67;;
13866;SDS011;7003;46.982;15.248;2022-12-31T08:30:52;16.03;;;11.00;;
13866;SDS011;7003;46.982;15.248;2022-12-31T08:33:25;12.00;;;7.70;;
13866;SDS011;7003;46.982;15.248;2022-12-31T08:36:07;9.90;;;6.20;;
13866;SDS011;7003;46.982;15.248;2022-12-31T08:38:46;8.03;;;6.00;;
13866;SDS011;7003;46.982;15.248;2022-12-31T08:41:23;10.53;;;7.73;;
13866;SDS011;7003;46.982;15.248;2022-12-31T08:44:00;13.23;;;8.63;;
13866;SDS011;7003;46.982;15.248;2022-12-31T08:46:37;9.30;;;8.50;;
13866;SDS011;7003;46.982;15.248;2022-12-31T08:49:20;8.53;;;6.80;;
13866;SDS011;7003;46.982;15.248;2022-12-31T08:51:48;11.03;;;8.83;;
13866;SDS011;7003;46.982;15.248;2022-12-31T08:54:19;12.07;;;9.33;;
13866;SDS011;7003;46.982;15.248;2022-12-31T08:56:55;11.73;;;9.67;;
13866;SDS011;7003;46.982;15.248;2022-12-31T08:59:31;9.07;;;8.17;;
13866;SDS011;7003;46.982;15.248;2022-12-31T09:02:19;13.33;;;7.43;;
13866;SDS011;7003;46.982;15.248;2022-12-31T09:05:01;9.50;;;7.50;;
13866;SDS011;7003;46.982;15.248;2022-12-31T09:07:38;6.63;;;4.03;;
13866;SDS011;7003;46.982;15.248;2022-12-31T09:10:14;7.27;;;3.70;;
13866;SDS011;7003;46.982;15.248;2022-12-31T09:12:47;6.07;;;4.60;;
13866;SDS011;7003;46.982;15.248;2022-12-31T09:15:25;13.47;;;7.70;;
13866;SDS011;7003;46.982;15.248;2022-12-31T09:17:59;9.97;;;6.20;;
13866;SDS011;7003;46.982;15.248;2022-12-31T09:20:30;5.97;;;5.00;;
13866;SDS011;7003;46.982;15.248;2022-12-31T09:23:00;15.20;;;12.03;;
13866;SDS011;7003;46.982;15.248;2022-12-31T09:25:28;13.83;;;7.57;;
13866;SDS011;7003;46.982;15.248;2022-12-31T09:28:01;8.23;;;7.27;;
13866;SDS011;7003;46.982;15.248;2022-12-31T09:30:37;12.33;;;8.23;;
13866;SDS011;7003;46.982;15.248;2022-12-31T09:33:14;13.17;;;7.97;;
13866;SDS011;7003;46.982;15.248;2022-12-31T09:35:56;10.10;;;6.90;;
13866;SDS011;7003;46.982;15.248;2022-12-31T09:38:29;8.20;;;5.17;;
13866;SDS011;7003;46.982;15.248;2022-12-31T09:41:13;39.20;;;17.07;;
13866;SDS011;7003;46.982;15.248;2022-12-31T09:47:05;22.43;;;10.97;;
13866;SDS011;7003;46.982;15.248;2022-12-31T09:49:55;12.67;;;8.53;;
13866;SDS011;7003;46.982;15.248;2022-12-31T09:52:49;16.20;;;9.00;;
13866;SDS011;7003;46.982;15.248;2022-12-31T09:55:44;14.07;;;6.63;;
13866;SDS011;7003;46.982;15.248;2022-12-31T09:58:22;9.43;;;6.67;;
13866;SDS011;7003;46.982;15.248;2022-12-31T10:01:03;11.40;;;5.80;;
13866;SDS011;7003;46.982;15.248;2022-12-31T10:03:55;9.53;;;8.03;;
13866;SDS011;7003;46.982;15.248;2022-12-31T10:06:46;9.80;;;5.70;;
13866;SDS011;7003;46.982;15.248;2022-12-31T10:09:38;16.90;;;10.80;;
13866;SDS011;7003;46.982;15.248;2022-12-31T10:12:22;14.07;;;8.63;;
13866;SDS011;7003;46.982;15.248;2022-12-31T10:15:06;7.97;;;5.70;;
13866;SDS011;7003;46.982;15.248;2022-12-31T10:17:48;17.17;;;10.73;;
13866;SDS011;7003;46.982;15.248;2022-12-31T10:20:28;18.53;;;11.90;;
13866;SDS011;7003;46.982;15.248;2022-12-31T10:23:24;14.20;;;9.43;;
13866;SDS011;7003;46.982;15.248;2022-12-31T10:26:15;6.87;;;6.03;;
13866;SDS011;7003;46.982;15.248;2022-12-31T10:28:53;7.70;;;5.30;;
13866;SDS011;7003;46.982;15.248;2022-12-31T10:31:32;5.73;;;3.73;;
13866;SDS011;7003;46.982;15.248;2022-12-31T10:34:11;7.40;;;4.93;;
13866;SDS011;7003;46.982;15.248;2022-12-31T10:36:51;7.97;;;6.30;;
13866;SDS011;7003;46.982;15.248;2022-12-31T10:39:23;9.23;;;6.50;;
13866;SDS011;7003;46.982;15.248;2022-12-31T10:42:08;8.10;;;5.50;;
13866;SDS011;7003;46.982;15.248;2022-12-31T10:57:53;5.60;;;3.90;;
13866;SDS011;7003;46.982;15.248;2022-12-31T11:00:39;5.70;;;3.80;;
13866;SDS011;7003;46.982;15.248;2022-12-31T11:16:27;4.10;;;2.67;;
13866;SDS011;7003;46.982;15.248;2022-12-31T11:19:09;4.63;;;3.17;;
13866;SDS011;7003;46.982;15.248;2022-12-31T11:21:49;5.03;;;2.50;;
13866;SDS011;7003;46.982;15.248;2022-12-31T11:24:33;4.35;;;3.80;;
13866;SDS011;7003;46.982;15.248;2022-12-31T11:27:17;6.50;;;3.53;;
13866;SDS011;7003;46.982;15.248;2022-12-31T11:30:04;4.85;;;3.08;;
13866;SDS011;7003;46.982;15.248;2022-12-31T11:35:37;3.70;;;2.90;;
13866;SDS011;7003;46.982;15.248;2022-12-31T11:38:17;4.63;;;2.97;;
13866;SDS011;7003;46.982;15.248;2022-12-31T11:40:59;2.92;;;2.33;;
13866;SDS011;7003;46.982;15.248;2022-12-31T11:43:33;3.63;;;2.35;;
13866;SDS011;7003;46.982;15.248;2022-12-31T11:49:15;3.13;;;2.42;;
13866;SDS011;7003;46.982;15.248;2022-12-31T11:52:18;2.50;;;2.17;;
13866;SDS011;7003;46.982;15.248;2022-12-31T11:57:52;4.00;;;3.25;;
13866;SDS011;7003;46.982;15.248;2022-12-31T12:00:28;5.43;;;2.70;;
13866;SDS011;7003;46.982;15.248;2022-12-31T12:02:58;3.67;;;2.78;;
13866;SDS011;7003;46.982;15.248;2022-12-31T12:05:31;4.65;;;2.95;;
13866;SDS011;7003;46.982;15.248;2022-12-31T12:08:01;6.38;;;3.58;;
13866;SDS011;7003;46.982;15.248;2022-12-31T12:10:32;5.93;;;4.25;;
13866;SDS011;7003;46.982;15.248;2022-12-31T12:13:18;4.18;;;3.47;;
13866;SDS011;7003;46.982;15.248;2022-12-31T12:15:51;4.20;;;3.50;;
13866;SDS011;7003;46.982;15.248;2022-12-31T12:18:28;6.47;;;3.58;;
13866;SDS011;7003;46.982;15.248;2022-12-31T12:21:05;3.72;;;3.13;;
13866;SDS011;7003;46.982;15.248;2022-12-31T12:23:37;3.42;;;3.08;;
13866;SDS011;7003;46.982;15.248;2022-12-31T12:26:24;4.45;;;3.42;;
13866;SDS011;7003;46.982;15.248;2022-12-31T12:28:58;5.03;;;4.50;;
13866;SDS011;7003;46.982;15.248;2022-12-31T12:31:29;4.32;;;3.60;;
13866;SDS011;7003;46.982;15.248;2022-12-31T12:33:58;6.18;;;3.15;;
13866;SDS011;7003;46.982;15.248;2022-12-31T12:36:29;3.67;;;2.95;;
13866;SDS011;7003;46.982;15.248;2022-12-31T12:39:02;5.18;;;3.13;;
13866;SDS011;7003;46.982;15.248;2022-12-31T12:41:32;5.78;;;2.90;;
13866;SDS011;7003;46.982;15.248;2022-12-31T12:44:01;2.65;;;2.40;;
13866;SDS011;7003;46.982;15.248;2022-12-31T12:46:33;3.28;;;2.33;;
13866;SDS011;7003;46.982;15.248;2022-12-31T12:49:13;3.80;;;2.33;;
13866;SDS011;7003;46.982;15.248;2022-12-31T12:51:54;3.20;;;2.85;;
13866;SDS011;7003;46.982;15.248;2022-12-31T12:54:54;4.82;;;3.15;;
13866;SDS011;7003;46.982;15.248;2022-12-31T12:57:34;5.22;;;3.30;;
13866;SDS011;7003;46.982;15.248;2022-12-31T13:00:16;4.22;;;3.83;;
13866;SDS011;7003;46.982;15.248;2022-12-31T13:02:54;7.50;;;4.93;;
13866;SDS011;7003;46.982;15.248;2022-12-31T13:05:55;4.28;;;3.88;;
13866;SDS011;7003;46.982;15.248;2022-12-31T13:11:42;6.57;;;3.72;;
13866;SDS011;7003;46.982;15.248;2022-12-31T13:14:21;6.53;;;4.00;;
13866;SDS011;7003;46.982;15.248;2022-12-31T13:17:01;5.20;;;3.70;;
13866;SDS011;7003;46.982;15.248;2022-12-31T13:19:45;8.10;;;5.15;;
13866;SDS011;7003;46.982;15.248;2022-12-31T13:22:22;6.60;;;4.68;;
13866;SDS011;7003;46.982;15.248;2022-12-31T13:24:59;4.90;;;4.40;;
13866;SDS011;7003;46.982;15.248;2022-12-31T13:27:34;7.85;;;4.07;;
13866;SDS011;7003;46.982;15.248;2022-12-31T13:30:12;5.10;;;4.40;;
13866;SDS011;7003;46.982;15.248;2022-12-31T13:32:46;9.32;;;5.53;;
13866;SDS011;7003;46.982;15.248;2022-12-31T13:35:22;7.57;;;5.35;;
13866;SDS011;7003;46.982;15.248;2022-12-31T13:37:55;6.65;;;4.10;;
13866;SDS011;7003;46.982;15.248;2022-12-31T13:40:31;5.85;;;4.18;;
13866;SDS011;7003;46.982;15.248;2022-12-31T13:43:11;7.30;;;5.47;;
13866;SDS011;7003;46.982;15.248;2022-12-31T13:45:45;5.70;;;4.82;;
13866;SDS011;7003;46.982;15.248;2022-12-31T13:48:23;6.85;;;5.65;;
13866;SDS011;7003;46.982;15.248;2022-12-31T13:50:59;5.90;;;3.78;;
13866;SDS011;7003;46.982;15.248;2022-12-31T13:53:33;5.50;;;4.13;;
13866;SDS011;7003;46.982;15.248;2022-12-31T13:56:10;11.48;;;5.50;;
13866;SDS011;7003;46.982;15.248;2022-12-31T13:58:45;7.18;;;5.38;;
13866;SDS011;7003;46.982;15.248;2022-12-31T14:01:18;8.90;;;5.28;;
13866;SDS011;7003;46.982;15.248;2022-12-31T14:03:53;7.53;;;5.57;;
13866;SDS011;7003;46.982;15.248;2022-12-31T14:06:30;6.95;;;4.68;;
13866;SDS011;7003;46.982;15.248;2022-12-31T14:09:05;8.23;;;5.25;;
13866;SDS011;7003;46.982;15.248;2022-12-31T14:11:43;6.32;;;4.72;;
13866;SDS011;7003;46.982;15.248;2022-12-31T14:14:26;8.77;;;5.35;;
13866;SDS011;7003;46.982;15.248;2022-12-31T14:17:02;8.75;;;4.95;;
13866;SDS011;7003;46.982;15.248;2022-12-31T14:19:44;7.32;;;5.35;;
13866;SDS011;7003;46.982;15.248;2022-12-31T14:22:22;6.85;;;4.25;;
13866;SDS011;7003;46.982;15.248;2022-12-31T14:25:00;5.93;;;4.82;;
13866;SDS011;7003;46.982;15.248;2022-12-31T14:27:33;7.68;;;4.70;;
13866;SDS011;7003;46.982;15.248;2022-12-31T14:30:05;6.40;;;4.07;;
13866;SDS011;7003;46.982;15.248;2022-12-31T14:32:54;5.20;;;4.72;;
13866;SDS011;7003;46.982;15.248;2022-12-31T14:35:48;5.93;;;4.30;;
13866;SDS011;7003;46.982;15.248;2022-12-31T14:38:26;6.82;;;4.70;;
13866;SDS011;7003;46.982;15.248;2022-12-31T14:41:10;7.32;;;4.82;;
13866;SDS011;7003;46.982;15.248;2022-12-31T14:43:50;6.40;;;4.57;;
13866;SDS011;7003;46.982;15.248;2022-12-31T14:46:27;11.43;;;9.38;;
13866;SDS011;7003;46.982;15.248;2022-12-31T14:49:09;12.75;;;8.05;;
13866;SDS011;7003;46.982;15.248;2022-12-31T14:51:47;11.73;;;7.57;;
13866;SDS011;7003;46.982;15.248;2022-12-31T14:54:26;10.52;;;6.50;;
13866;SDS011;7003;46.982;15.248;2022-12-31T14:57:08;5.85;;;5.00;;
13866;SDS011;7003;46.982;15.248;2022-12-31T14:59:38;5.40;;;4.75;;
13866;SDS011;7003;46.982;15.248;2022-12-31T15:02:27;6.32;;;5.03;;
13866;SDS011;7003;46.982;15.248;2022-12-31T15:05:08;11.02;;;9.30;;
13866;SDS011;7003;46.982;15.248;2022-12-31T15:07:45;19.45;;;12.98;;
13866;SDS011;7003;46.982;15.248;2022-12-31T15:10:24;17.00;;;11.02;;
13866;SDS011;7003;46.982;15.248;2022-12-31T15:13:04;7.15;;;5.32;;
13866;SDS011;7003;46.982;15.248;2022-12-31T15:18:48;8.18;;;5.53;;
13866;SDS011;7003;46.982;15.248;2022-12-31T15:21:36;8.65;;;4.85;;
13866;SDS011;7003;46.982;15.248;2022-12-31T15:24:18;8.88;;;4.78;;
13866;SDS011;7003;46.982;15.248;2022-12-31T15:26:50;4.90;;;3.95;;
13866;SDS011;7003;46.982;15.248;2022-12-31T15:29:23;11.82;;;5.70;;
13866;SDS011;7003;46.982;15.248;2022-12-31T15:31:58;7.17;;;4.40;;
13866;SDS011;7003;46.982;15.248;2022-12-31T15:34:30;9.13;;;5.43;;
13866;SDS011;7003;46.982;15.248;2022-12-31T15:37:00;8.07;;;5.07;;
13866;SDS011;7003;46.982;15.248;2022-12-31T15:39:40;13.00;;;4.70;;
13866;SDS011;7003;46.982;15.248;2022-12-31T15:45:11;4.70;;;4.30;;
13866;SDS011;7003;46.982;15.248;2022-12-31T15:47:46;4.93;;;4.10;;
13866;SDS011;7003;46.982;15.248;2022-12-31T15:50:17;2.60;;;2.40;;
13866;SDS011;7003;46.982;15.248;2022-12-31T15:52:48;8.87;;;4.17;;
13866;SDS011;7003;46.982;15.248;2022-12-31T15:55:21;4.17;;;3.43;;
13866;SDS011;7003;46.982;15.248;2022-12-31T15:57:54;6.63;;;4.03;;
13866;SDS011;7003;46.982;15.248;2022-12-31T16:00:27;7.17;;;4.43;;
13866;SDS011;7003;46.982;15.248;2022-12-31T16:03:16;3.77;;;3.30;;
13866;SDS011;7003;46.982;15.248;2022-12-31T16:05:49;4.87;;;4.03;;
13866;SDS011;7003;46.982;15.248;2022-12-31T16:08:17;3.40;;;2.73;;
13866;SDS011;7003;46.982;15.248;2022-12-31T16:10:50;5.40;;;4.63;;
13866;SDS011;7003;46.982;15.248;2022-12-31T16:13:20;7.27;;;6.50;;
13866;SDS011;7003;46.982;15.248;2022-12-31T16:15:50;4.90;;;4.40;;
13866;SDS011;7003;46.982;15.248;2022-12-31T16:18:24;12.80;;;6.77;;